sensor_id;sensor_type;location;lat;lon;timestamp;P1;durP1;ratioP1;P2;durP2;ratioP2
3967;SDS011;9221;42.646;23.380;2022-09-21T00:00:46;2.10;;;1.50;;
3967;SDS011;9221;42.646;23.380;2022-09-21T00:03:13;2.33;;;1.90;;
3967;SDS011;9221;42.646;23.380;2022-09-21T00:05:38;4.90;;;2.07;;
3967;SDS011;9221;42.646;23.380;2022-09-21T00:08:05;3.33;;;1.73;;
3967;SDS011;9221;42.646;23.380;2022-09-21T00:10:32;2.90;;;1.63;;
3967;SDS011;9221;42.646;23.380;2022-09-21T00:12:58;9.23;;;2.00;;
3967;SDS011;9221;42.646;23.380;2022-09-21T00:15:27;2.67;;;1.23;;
3967;SDS011;9221;42.646;23.380;2022-09-21T00:17:53;2.57;;;1.27;;
3967;SDS011;9221;42.646;23.380;2022-09-21T00:20:20;3.30;;;1.70;;
3967;SDS011;9221;42.646;23.380;2022-09-21T00:22:46;3.03;;;1.50;;
3967;SDS011;9221;42.646;23.380;2022-09-21T00:25:13;5.40;;;1.60;;
3967;SDS011;9221;42.646;23.380;2022-09-21T00:27:39;3.00;;;1.90;;
3967;SDS011;9221;42.646;23.380;2022-09-21T00:30:05;3.23;;;1.40;;
3967;SDS011;9221;42.646;23.380;2022-09-21T00:32:32;2.50;;;1.43;;
3967;SDS011;9221;42.646;23.380;2022-09-21T00:34:59;2.40;;;1.60;;
3967;SDS011;9221;42.646;23.380;2022-09-21T00:37:26;4.00;;;1.90;;
3967;SDS011;9221;42.646;23.380;2022-09-21T00:39:52;2.17;;;1.47;;
3967;SDS011;9221;42.646;23.380;2022-09-21T00:44:50;4.30;;;2.43;;
3967;SDS011;9221;42.646;23.380;2022-09-21T00:47:18;2.03;;;1.60;;
3967;SDS011;9221;42.646;23.380;2022-09-21T00:49:53;2.10;;;1.13;;
3967;SDS011;9221;42.646;23.380;2022-09-21T00:52:21;3.93;;;1.60;;
3967;SDS011;9221;42.646;23.380;2022-09-21T00:54:49;2.10;;;1.77;;
3967;SDS011;9221;42.646;23.380;2022-09-21T00:57:20;2.37;;;1.50;;
3967;SDS011;9221;42.646;23.380;2022-09-21T00:59:50;2.40;;;1.70;;
3967;SDS011;9221;42.646;23.380;2022-09-21T01:02:18;2.30;;;1.20;;
3967;SDS011;9221;42.646;23.380;2022-09-21T01:04:44;3.13;;;1.80;;
3967;SDS011;9221;42.646;23.380;2022-09-21T01:07:12;2.40;;;1.43;;
3967;SDS011;9221;42.646;23.380;2022-09-21T01:09:43;2.97;;;1.80;;
3967;SDS011;9221;42.646;23.380;2022-09-21T01:20:50;2.30;;;1.40;;
3967;SDS011;9221;42.646;23.380;2022-09-21T01:31:25;3.30;;;1.93;;
3967;SDS011;9221;42.646;23.380;2022-09-21T01:33:57;15.77;;;2.90;;
3967;SDS011;9221;42.646;23.380;2022-09-21T01:36:29;6.33;;;2.47;;
3967;SDS011;9221;42.646;23.380;2022-09-21T01:39:10;6.47;;;2.77;;
3967;SDS011;9221;42.646;23.380;2022-09-21T01:41:38;4.27;;;2.73;;
3967;SDS011;9221;42.646;23.380;2022-09-21T01:44:09;3.70;;;2.30;;
3967;SDS011;9221;42.646;23.380;2022-09-21T01:46:39;6.43;;;2.60;;
3967;SDS011;9221;42.646;23.380;2022-09-21T01:49:15;6.63;;;3.00;;
3967;SDS011;9221;42.646;23.380;2022-09-21T01:51:52;3.53;;;2.27;;
3967;SDS011;9221;42.646;23.380;2022-09-21T01:54:33;5.83;;;2.97;;
3967;SDS011;9221;42.646;23.380;2022-09-21T01:57:05;3.90;;;2.20;;
3967;SDS011;9221;42.646;23.380;2022-09-21T02:02:14;3.87;;;1.87;;
3967;SDS011;9221;42.646;23.380;2022-09-21T02:05:07;7.00;;;2.57;;
3967;SDS011;9221;42.646;23.380;2022-09-21T02:07:34;7.83;;;2.63;;
3967;SDS011;9221;42.646;23.380;2022-09-21T02:10:03;7.00;;;3.00;;
3967;SDS011;9221;42.646;23.380;2022-09-21T02:12:31;11.30;;;3.50;;
3967;SDS011;9221;42.646;23.380;2022-09-21T02:14:57;7.23;;;3.33;;
3967;SDS011;9221;42.646;23.380;2022-09-21T02:22:56;6.50;;;2.80;;
3967;SDS011;9221;42.646;23.380;2022-09-21T02:25:46;7.13;;;3.77;;
3967;SDS011;9221;42.646;23.380;2022-09-21T02:31:30;6.97;;;3.23;;
3967;SDS011;9221;42.646;23.380;2022-09-21T02:33:57;6.33;;;3.20;;
3967;SDS011;9221;42.646;23.380;2022-09-21T02:39:14;6.63;;;3.17;;
3967;SDS011;9221;42.646;23.380;2022-09-21T02:42:00;9.53;;;2.97;;
3967;SDS011;9221;42.646;23.380;2022-09-21T02:44:39;3.63;;;2.50;;
3967;SDS011;9221;42.646;23.380;2022-09-21T02:47:14;7.10;;;3.03;;
3967;SDS011;9221;42.646;23.380;2022-09-21T02:50:03;9.53;;;3.10;;
3967;SDS011;9221;42.646;23.380;2022-09-21T02:52:33;6.10;;;2.93;;
3967;SDS011;9221;42.646;23.380;2022-09-21T02:55:03;5.37;;;2.70;;
3967;SDS011;9221;42.646;23.380;2022-09-21T02:57:29;6.70;;;1.93;;
3967;SDS011;9221;42.646;23.380;2022-09-21T02:59:55;4.17;;;2.30;;
3967;SDS011;9221;42.646;23.380;2022-09-21T03:02:20;5.40;;;2.40;;
3967;SDS011;9221;42.646;23.380;2022-09-21T03:04:46;2.87;;;1.90;;
3967;SDS011;9221;42.646;23.380;2022-09-21T03:07:13;5.13;;;1.93;;
3967;SDS011;9221;42.646;23.380;2022-09-21T03:09:40;5.60;;;2.70;;
3967;SDS011;9221;42.646;23.380;2022-09-21T03:12:05;7.30;;;2.10;;
3967;SDS011;9221;42.646;23.380;2022-09-21T03:14:31;4.60;;;2.77;;
3967;SDS011;9221;42.646;23.380;2022-09-21T03:16:57;2.73;;;1.87;;
3967;SDS011;9221;42.646;23.380;2022-09-21T03:19:24;12.03;;;2.10;;
3967;SDS011;9221;42.646;23.380;2022-09-21T03:21:51;2.57;;;1.90;;
3967;SDS011;9221;42.646;23.380;2022-09-21T03:24:17;2.23;;;1.47;;
3967;SDS011;9221;42.646;23.380;2022-09-21T03:27:02;4.53;;;2.20;;
3967;SDS011;9221;42.646;23.380;2022-09-21T03:29:28;4.20;;;2.13;;
3967;SDS011;9221;42.646;23.380;2022-09-21T03:31:53;3.80;;;2.10;;
3967;SDS011;9221;42.646;23.380;2022-09-21T03:34:20;4.43;;;2.07;;
3967;SDS011;9221;42.646;23.380;2022-09-21T03:36:45;6.03;;;3.03;;
3967;SDS011;9221;42.646;23.380;2022-09-21T03:39:11;5.53;;;2.40;;
3967;SDS011;9221;42.646;23.380;2022-09-21T03:41:36;8.60;;;2.87;;
3967;SDS011;9221;42.646;23.380;2022-09-21T03:44:02;6.33;;;2.83;;
3967;SDS011;9221;42.646;23.380;2022-09-21T03:46:28;9.93;;;2.67;;
3967;SDS011;9221;42.646;23.380;2022-09-21T03:48:54;6.83;;;3.13;;
3967;SDS011;9221;42.646;23.380;2022-09-21T03:51:19;5.03;;;2.93;;
3967;SDS011;9221;42.646;23.380;2022-09-21T03:53:44;6.07;;;3.00;;
3967;SDS011;9221;42.646;23.380;2022-09-21T03:56:10;6.03;;;2.80;;
3967;SDS011;9221;42.646;23.380;2022-09-21T03:58:35;6.00;;;2.97;;
3967;SDS011;9221;42.646;23.380;2022-09-21T04:01:01;8.13;;;3.17;;
3967;SDS011;9221;42.646;23.380;2022-09-21T04:03:27;5.90;;;3.40;;
3967;SDS011;9221;42.646;23.380;2022-09-21T04:05:53;10.43;;;3.70;;
3967;SDS011;9221;42.646;23.380;2022-09-21T04:08:19;6.47;;;3.20;;
3967;SDS011;9221;42.646;23.380;2022-09-21T04:10:45;6.37;;;2.90;;
3967;SDS011;9221;42.646;23.380;2022-09-21T04:13:10;9.00;;;2.83;;
3967;SDS011;9221;42.646;23.380;2022-09-21T04:15:37;15.23;;;4.17;;
3967;SDS011;9221;42.646;23.380;2022-09-21T04:18:03;10.10;;;4.40;;
3967;SDS011;9221;42.646;23.380;2022-09-21T04:20:29;10.53;;;3.57;;
3967;SDS011;9221;42.646;23.380;2022-09-21T04:22:55;8.00;;;3.93;;
3967;SDS011;9221;42.646;23.380;2022-09-21T04:25:20;19.37;;;4.20;;
3967;SDS011;9221;42.646;23.380;2022-09-21T04:27:46;9.37;;;4.33;;
3967;SDS011;9221;42.646;23.380;2022-09-21T04:30:12;11.50;;;3.37;;
3967;SDS011;9221;42.646;23.380;2022-09-21T04:32:39;9.57;;;3.63;;
3967;SDS011;9221;42.646;23.380;2022-09-21T04:35:05;21.13;;;7.80;;
3967;SDS011;9221;42.646;23.380;2022-09-21T04:37:31;15.60;;;6.00;;
3967;SDS011;9221;42.646;23.380;2022-09-21T04:39:56;8.90;;;4.10;;
3967;SDS011;9221;42.646;23.380;2022-09-21T04:42:22;10.03;;;4.23;;
3967;SDS011;9221;42.646;23.380;2022-09-21T04:44:47;15.93;;;6.30;;
3967;SDS011;9221;42.646;23.380;2022-09-21T04:47:13;11.00;;;4.03;;
3967;SDS011;9221;42.646;23.380;2022-09-21T04:49:38;10.70;;;5.03;;
3967;SDS011;9221;42.646;23.380;2022-09-21T04:52:03;13.37;;;5.00;;
3967;SDS011;9221;42.646;23.380;2022-09-21T04:54:29;14.00;;;3.97;;
3967;SDS011;9221;42.646;23.380;2022-09-21T04:56:55;8.13;;;3.87;;
3967;SDS011;9221;42.646;23.380;2022-09-21T04:59:21;9.10;;;3.60;;
3967;SDS011;9221;42.646;23.380;2022-09-21T05:01:46;10.50;;;3.73;;
3967;SDS011;9221;42.646;23.380;2022-09-21T05:04:12;10.83;;;3.53;;
3967;SDS011;9221;42.646;23.380;2022-09-21T05:06:37;8.10;;;3.60;;
3967;SDS011;9221;42.646;23.380;2022-09-21T05:09:03;9.67;;;3.87;;
3967;SDS011;9221;42.646;23.380;2022-09-21T05:11:47;9.97;;;3.53;;
3967;SDS011;9221;42.646;23.380;2022-09-21T05:14:12;9.13;;;3.20;;
3967;SDS011;9221;42.646;23.380;2022-09-21T05:16:38;10.43;;;3.80;;
3967;SDS011;9221;42.646;23.380;2022-09-21T05:19:03;8.40;;;3.90;;
3967;SDS011;9221;42.646;23.380;2022-09-21T05:21:28;13.53;;;3.90;;
3967;SDS011;9221;42.646;23.380;2022-09-21T05:23:55;12.40;;;3.87;;
3967;SDS011;9221;42.646;23.380;2022-09-21T05:26:21;13.37;;;4.53;;
3967;SDS011;9221;42.646;23.380;2022-09-21T05:28:47;20.17;;;4.90;;
3967;SDS011;9221;42.646;23.380;2022-09-21T05:33:39;12.63;;;4.53;;
3967;SDS011;9221;42.646;23.380;2022-09-21T05:36:32;13.63;;;4.27;;
3967;SDS011;9221;42.646;23.380;2022-09-21T05:39:15;15.70;;;4.63;;
3967;SDS011;9221;42.646;23.380;2022-09-21T05:41:40;8.80;;;4.40;;
3967;SDS011;9221;42.646;23.380;2022-09-21T05:44:08;12.37;;;4.10;;
3967;SDS011;9221;42.646;23.380;2022-09-21T05:46:52;10.70;;;4.37;;
3967;SDS011;9221;42.646;23.380;2022-09-21T06:05:31;7.50;;;4.00;;
3967;SDS011;9221;42.646;23.380;2022-09-21T06:07:56;6.27;;;3.07;;
3967;SDS011;9221;42.646;23.380;2022-09-21T06:10:21;9.37;;;3.40;;
3967;SDS011;9221;42.646;23.380;2022-09-21T06:12:49;12.33;;;4.43;;
3967;SDS011;9221;42.646;23.380;2022-09-21T06:15:14;9.07;;;3.63;;
3967;SDS011;9221;42.646;23.380;2022-09-21T06:17:40;10.47;;;3.10;;
3967;SDS011;9221;42.646;23.380;2022-09-21T06:20:06;10.33;;;4.37;;
3967;SDS011;9221;42.646;23.380;2022-09-21T06:22:32;34.47;;;4.07;;
3967;SDS011;9221;42.646;23.380;2022-09-21T06:24:58;13.00;;;3.67;;
3967;SDS011;9221;42.646;23.380;2022-09-21T06:27:24;8.80;;;4.00;;
3967;SDS011;9221;42.646;23.380;2022-09-21T06:29:49;15.13;;;3.50;;
3967;SDS011;9221;42.646;23.380;2022-09-21T06:32:14;13.27;;;3.27;;
3967;SDS011;9221;42.646;23.380;2022-09-21T06:34:40;14.03;;;4.03;;
3967;SDS011;9221;42.646;23.380;2022-09-21T06:37:06;9.07;;;3.80;;
3967;SDS011;9221;42.646;23.380;2022-09-21T06:39:32;16.33;;;3.90;;
3967;SDS011;9221;42.646;23.380;2022-09-21T06:41:57;9.57;;;3.80;;
3967;SDS011;9221;42.646;23.380;2022-09-21T06:44:23;6.80;;;3.10;;
3967;SDS011;9221;42.646;23.380;2022-09-21T06:46:49;4.83;;;3.10;;
3967;SDS011;9221;42.646;23.380;2022-09-21T06:49:14;7.40;;;3.53;;
3967;SDS011;9221;42.646;23.380;2022-09-21T06:51:40;7.80;;;3.20;;
3967;SDS011;9221;42.646;23.380;2022-09-21T06:54:05;15.67;;;2.80;;
3967;SDS011;9221;42.646;23.380;2022-09-21T06:56:31;6.07;;;3.77;;
3967;SDS011;9221;42.646;23.380;2022-09-21T06:58:57;8.07;;;2.50;;
3967;SDS011;9221;42.646;23.380;2022-09-21T07:01:22;3.63;;;2.00;;
3967;SDS011;9221;42.646;23.380;2022-09-21T07:03:49;4.60;;;2.20;;
3967;SDS011;9221;42.646;23.380;2022-09-21T07:06:15;3.17;;;1.50;;
3967;SDS011;9221;42.646;23.380;2022-09-21T07:08:41;2.80;;;1.30;;
3967;SDS011;9221;42.646;23.380;2022-09-21T07:11:08;5.60;;;1.27;;
3967;SDS011;9221;42.646;23.380;2022-09-21T07:13:34;3.83;;;1.30;;
3967;SDS011;9221;42.646;23.380;2022-09-21T07:16:04;2.70;;;1.43;;
3967;SDS011;9221;42.646;23.380;2022-09-21T07:18:31;8.60;;;1.60;;
3967;SDS011;9221;42.646;23.380;2022-09-21T07:21:01;2.83;;;1.20;;
3967;SDS011;9221;42.646;23.380;2022-09-21T07:23:27;2.23;;;1.30;;
3967;SDS011;9221;42.646;23.380;2022-09-21T07:25:53;2.00;;;1.13;;
3967;SDS011;9221;42.646;23.380;2022-09-21T07:28:18;3.87;;;1.50;;
3967;SDS011;9221;42.646;23.380;2022-09-21T07:30:44;2.23;;;1.50;;
3967;SDS011;9221;42.646;23.380;2022-09-21T07:33:09;4.50;;;1.27;;
3967;SDS011;9221;42.646;23.380;2022-09-21T07:35:35;4.80;;;1.17;;
3967;SDS011;9221;42.646;23.380;2022-09-21T07:38:02;4.50;;;1.30;;
3967;SDS011;9221;42.646;23.380;2022-09-21T07:40:30;6.80;;;1.67;;
3967;SDS011;9221;42.646;23.380;2022-09-21T07:42:56;5.60;;;1.70;;
3967;SDS011;9221;42.646;23.380;2022-09-21T07:45:22;1.10;;;0.80;;
3967;SDS011;9221;42.646;23.380;2022-09-21T07:47:49;4.80;;;1.40;;
3967;SDS011;9221;42.646;23.380;2022-09-21T07:50:14;3.30;;;1.40;;
3967;SDS011;9221;42.646;23.380;2022-09-21T07:52:40;6.33;;;2.00;;
3967;SDS011;9221;42.646;23.380;2022-09-21T07:55:06;2.90;;;1.60;;
3967;SDS011;9221;42.646;23.380;2022-09-21T07:57:32;4.47;;;1.70;;
3967;SDS011;9221;42.646;23.380;2022-09-21T08:00:16;6.20;;;2.13;;
3967;SDS011;9221;42.646;23.380;2022-09-21T08:02:41;2.27;;;1.27;;
3967;SDS011;9221;42.646;23.380;2022-09-21T08:05:07;5.30;;;1.37;;
3967;SDS011;9221;42.646;23.380;2022-09-21T08:07:32;3.60;;;1.23;;
3967;SDS011;9221;42.646;23.380;2022-09-21T08:10:00;3.53;;;1.40;;
3967;SDS011;9221;42.646;23.380;2022-09-21T08:12:25;2.60;;;1.30;;
3967;SDS011;9221;42.646;23.380;2022-09-21T08:14:51;2.90;;;1.20;;
3967;SDS011;9221;42.646;23.380;2022-09-21T08:17:16;3.10;;;1.37;;
3967;SDS011;9221;42.646;23.380;2022-09-21T08:19:42;5.03;;;1.23;;
3967;SDS011;9221;42.646;23.380;2022-09-21T08:22:07;1.80;;;1.23;;
3967;SDS011;9221;42.646;23.380;2022-09-21T08:24:33;1.33;;;1.23;;
3967;SDS011;9221;42.646;23.380;2022-09-21T08:26:59;3.10;;;1.83;;
3967;SDS011;9221;42.646;23.380;2022-09-21T08:29:25;15.87;;;1.67;;
3967;SDS011;9221;42.646;23.380;2022-09-21T08:31:51;3.37;;;1.37;;
3967;SDS011;9221;42.646;23.380;2022-09-21T08:34:17;1.90;;;1.50;;
3967;SDS011;9221;42.646;23.380;2022-09-21T08:36:44;1.40;;;1.30;;
3967;SDS011;9221;42.646;23.380;2022-09-21T08:39:10;7.20;;;1.60;;
3967;SDS011;9221;42.646;23.380;2022-09-21T08:44:23;3.90;;;1.47;;
3967;SDS011;9221;42.646;23.380;2022-09-21T08:49:34;3.00;;;1.40;;
3967;SDS011;9221;42.646;23.380;2022-09-21T08:52:04;2.77;;;1.43;;
3967;SDS011;9221;42.646;23.380;2022-09-21T08:54:57;4.70;;;1.93;;
3967;SDS011;9221;42.646;23.380;2022-09-21T08:57:30;1.70;;;1.00;;
3967;SDS011;9221;42.646;23.380;2022-09-21T08:59:58;4.63;;;1.50;;
3967;SDS011;9221;42.646;23.380;2022-09-21T09:21:21;3.90;;;1.50;;
3967;SDS011;9221;42.646;23.380;2022-09-21T09:26:45;1.80;;;0.90;;
3967;SDS011;9221;42.646;23.380;2022-09-21T09:30:02;2.30;;;1.07;;
3967;SDS011;9221;42.646;23.380;2022-09-21T09:32:11;1.47;;;1.17;;
3967;SDS011;9221;42.646;23.380;2022-09-21T09:34:40;8.93;;;2.53;;
3967;SDS011;9221;42.646;23.380;2022-09-21T09:37:14;1.70;;;1.00;;
3967;SDS011;9221;42.646;23.380;2022-09-21T09:39:41;3.97;;;1.20;;
3967;SDS011;9221;42.646;23.380;2022-09-21T09:50:45;1.83;;;0.87;;
3967;SDS011;9221;42.646;23.380;2022-09-21T09:53:18;1.17;;;1.03;;
3967;SDS011;9221;42.646;23.380;2022-09-21T09:55:49;3.07;;;1.10;;
3967;SDS011;9221;42.646;23.380;2022-09-21T09:58:21;3.63;;;0.83;;
3967;SDS011;9221;42.646;23.380;2022-09-21T10:00:47;0.80;;;0.70;;
3967;SDS011;9221;42.646;23.380;2022-09-21T10:03:17;1.23;;;1.07;;
3967;SDS011;9221;42.646;23.380;2022-09-21T10:05:47;2.33;;;1.10;;
3967;SDS011;9221;42.646;23.380;2022-09-21T10:08:25;2.40;;;1.37;;
3967;SDS011;9221;42.646;23.380;2022-09-21T10:11:00;3.27;;;0.90;;
3967;SDS011;9221;42.646;23.380;2022-09-21T10:13:27;0.60;;;0.50;;
3967;SDS011;9221;42.646;23.380;2022-09-21T10:16:02;1.20;;;0.67;;
3967;SDS011;9221;42.646;23.380;2022-09-21T10:24:03;0.90;;;0.67;;
3967;SDS011;9221;42.646;23.380;2022-09-21T10:26:43;1.87;;;0.70;;
3967;SDS011;9221;42.646;23.380;2022-09-21T10:31:52;2.53;;;0.87;;
3967;SDS011;9221;42.646;23.380;2022-09-21T10:34:37;2.07;;;0.60;;
3967;SDS011;9221;42.646;23.380;2022-09-21T10:42:43;0.90;;;0.80;;
3967;SDS011;9221;42.646;23.380;2022-09-21T10:45:14;0.90;;;0.57;;
3967;SDS011;9221;42.646;23.380;2022-09-21T10:47:50;1.00;;;0.53;;
3967;SDS011;9221;42.646;23.380;2022-09-21T10:52:47;3.10;;;0.87;;
3967;SDS011;9221;42.646;23.380;2022-09-21T10:55:17;1.17;;;0.60;;
3967;SDS011;9221;42.646;23.380;2022-09-21T10:57:44;1.67;;;0.77;;
3967;SDS011;9221;42.646;23.380;2022-09-21T11:02:49;0.60;;;0.60;;
3967;SDS011;9221;42.646;23.380;2022-09-21T11:08:03;1.53;;;0.40;;
3967;SDS011;9221;42.646;23.380;2022-09-21T11:10:58;4.20;;;1.10;;
3967;SDS011;9221;42.646;23.380;2022-09-21T11:13:37;2.93;;;1.33;;
3967;SDS011;9221;42.646;23.380;2022-09-21T11:16:25;0.70;;;0.47;;
3967;SDS011;9221;42.646;23.380;2022-09-21T11:22:13;4.30;;;0.50;;
3967;SDS011;9221;42.646;23.380;2022-09-21T11:24:53;1.43;;;0.60;;
3967;SDS011;9221;42.646;23.380;2022-09-21T11:27:36;2.13;;;0.83;;
3967;SDS011;9221;42.646;23.380;2022-09-21T11:30:10;2.80;;;0.50;;
3967;SDS011;9221;42.646;23.380;2022-09-21T11:44:09;1.03;;;0.80;;
3967;SDS011;9221;42.646;23.380;2022-09-21T11:46:45;9.27;;;0.60;;
3967;SDS011;9221;42.646;23.380;2022-09-21T11:52:12;4.33;;;0.70;;
3967;SDS011;9221;42.646;23.380;2022-09-21T11:57:41;4.93;;;0.63;;
3967;SDS011;9221;42.646;23.380;2022-09-21T12:00:27;2.00;;;0.40;;
3967;SDS011;9221;42.646;23.380;2022-09-21T12:03:13;4.00;;;0.80;;
3967;SDS011;9221;42.646;23.380;2022-09-21T12:16:51;3.70;;;0.73;;
3967;SDS011;9221;42.646;23.380;2022-09-21T12:19:38;0.93;;;0.60;;
3967;SDS011;9221;42.646;23.380;2022-09-21T12:22:34;2.03;;;0.90;;
3967;SDS011;9221;42.646;23.380;2022-09-21T12:25:04;1.03;;;0.57;;
3967;SDS011;9221;42.646;23.380;2022-09-21T12:27:47;3.70;;;0.93;;
3967;SDS011;9221;42.646;23.380;2022-09-21T12:30:26;1.10;;;0.80;;
3967;SDS011;9221;42.646;23.380;2022-09-21T12:32:57;0.97;;;0.73;;
3967;SDS011;9221;42.646;23.380;2022-09-21T12:48:52;0.90;;;0.53;;
3967;SDS011;9221;42.646;23.380;2022-09-21T12:51:30;2.43;;;0.40;;
3967;SDS011;9221;42.646;23.380;2022-09-21T12:54:07;0.80;;;0.40;;
3967;SDS011;9221;42.646;23.380;2022-09-21T13:02:29;1.23;;;0.80;;
3967;SDS011;9221;42.646;23.380;2022-09-21T13:08:13;15.83;;;1.03;;
3967;SDS011;9221;42.646;23.380;2022-09-21T13:15:58;7.20;;;1.50;;
3967;SDS011;9221;42.646;23.380;2022-09-21T13:18:26;0.57;;;0.43;;
3967;SDS011;9221;42.646;23.380;2022-09-21T13:20:56;1.17;;;0.40;;
3967;SDS011;9221;42.646;23.380;2022-09-21T13:23:34;4.27;;;0.70;;
3967;SDS011;9221;42.646;23.380;2022-09-21T13:26:14;1.13;;;0.50;;
3967;SDS011;9221;42.646;23.380;2022-09-21T13:31:51;1.57;;;0.70;;
3967;SDS011;9221;42.646;23.380;2022-09-21T13:34:31;2.57;;;0.70;;
3967;SDS011;9221;42.646;23.380;2022-09-21T13:44:56;1.10;;;0.60;;
3967;SDS011;9221;42.646;23.380;2022-09-21T13:49:56;0.47;;;0.30;;
3967;SDS011;9221;42.646;23.380;2022-09-21T13:52:24;2.00;;;0.87;;
3967;SDS011;9221;42.646;23.380;2022-09-21T13:54:56;2.80;;;1.30;;
3967;SDS011;9221;42.646;23.380;2022-09-21T14:02:43;0.90;;;0.40;;
3967;SDS011;9221;42.646;23.380;2022-09-21T14:10:39;2.00;;;0.60;;
3967;SDS011;9221;42.646;23.380;2022-09-21T14:18:57;0.73;;;0.50;;
3967;SDS011;9221;42.646;23.380;2022-09-21T14:21:24;1.50;;;1.03;;
3967;SDS011;9221;42.646;23.380;2022-09-21T14:29:12;0.80;;;0.53;;
3967;SDS011;9221;42.646;23.380;2022-09-21T14:31:45;2.73;;;0.70;;
3967;SDS011;9221;42.646;23.380;2022-09-21T14:34:14;2.20;;;0.97;;
3967;SDS011;9221;42.646;23.380;2022-09-21T14:36:45;5.03;;;1.27;;
3967;SDS011;9221;42.646;23.380;2022-09-21T14:39:18;2.93;;;1.27;;
3967;SDS011;9221;42.646;23.380;2022-09-21T14:41:49;2.37;;;1.20;;
3967;SDS011;9221;42.646;23.380;2022-09-21T14:44:19;1.67;;;1.10;;
3967;SDS011;9221;42.646;23.380;2022-09-21T14:46:58;1.60;;;1.20;;
3967;SDS011;9221;42.646;23.380;2022-09-21T14:52:06;3.77;;;1.03;;
3967;SDS011;9221;42.646;23.380;2022-09-21T15:02:24;4.83;;;1.37;;
3967;SDS011;9221;42.646;23.380;2022-09-21T15:10:49;3.57;;;1.20;;
3967;SDS011;9221;42.646;23.380;2022-09-21T15:18:47;3.07;;;1.20;;
3967;SDS011;9221;42.646;23.380;2022-09-21T15:21:28;1.40;;;1.13;;
3967;SDS011;9221;42.646;23.380;2022-09-21T15:23:55;2.17;;;1.30;;
3967;SDS011;9221;42.646;23.380;2022-09-21T15:26:25;3.77;;;1.70;;
3967;SDS011;9221;42.646;23.380;2022-09-21T15:28:57;3.20;;;1.43;;
3967;SDS011;9221;42.646;23.380;2022-09-21T15:31:24;2.07;;;1.37;;
3967;SDS011;9221;42.646;23.380;2022-09-21T15:33:57;7.77;;;1.47;;
3967;SDS011;9221;42.646;23.380;2022-09-21T15:36:23;2.10;;;1.07;;
3967;SDS011;9221;42.646;23.380;2022-09-21T15:38:51;1.67;;;1.33;;
3967;SDS011;9221;42.646;23.380;2022-09-21T15:41:42;1.30;;;1.10;;
3967;SDS011;9221;42.646;23.380;2022-09-21T15:44:22;9.00;;;1.80;;
3967;SDS011;9221;42.646;23.380;2022-09-21T15:46:56;1.43;;;0.97;;
3967;SDS011;9221;42.646;23.380;2022-09-21T15:49:25;3.53;;;1.33;;
3967;SDS011;9221;42.646;23.380;2022-09-21T15:52:04;2.97;;;1.20;;
3967;SDS011;9221;42.646;23.380;2022-09-21T15:54:36;5.30;;;1.30;;
3967;SDS011;9221;42.646;23.380;2022-09-21T15:57:05;2.10;;;1.20;;
3967;SDS011;9221;42.646;23.380;2022-09-21T16:00:05;3.37;;;1.20;;
3967;SDS011;9221;42.646;23.380;2022-09-21T16:02:49;4.73;;;1.37;;
3967;SDS011;9221;42.646;23.380;2022-09-21T16:05:29;8.10;;;0.97;;
3967;SDS011;9221;42.646;23.380;2022-09-21T16:08:05;1.00;;;0.70;;
3967;SDS011;9221;42.646;23.380;2022-09-21T16:10:40;5.93;;;1.20;;
3967;SDS011;9221;42.646;23.380;2022-09-21T16:16:23;1.90;;;1.07;;
3967;SDS011;9221;42.646;23.380;2022-09-21T16:18:52;3.70;;;1.53;;
3967;SDS011;9221;42.646;23.380;2022-09-21T16:21:26;3.33;;;1.27;;
3967;SDS011;9221;42.646;23.380;2022-09-21T16:24:34;2.03;;;0.90;;
3967;SDS011;9221;42.646;23.380;2022-09-21T16:27:00;2.60;;;0.87;;
3967;SDS011;9221;42.646;23.380;2022-09-21T16:29:40;2.30;;;1.10;;
3967;SDS011;9221;42.646;23.380;2022-09-21T16:34:42;5.00;;;1.63;;
3967;SDS011;9221;42.646;23.380;2022-09-21T16:37:20;4.10;;;1.83;;
3967;SDS011;9221;42.646;23.380;2022-09-21T16:39:55;4.20;;;1.70;;
3967;SDS011;9221;42.646;23.380;2022-09-21T16:42:22;4.07;;;1.87;;
3967;SDS011;9221;42.646;23.380;2022-09-21T16:44:51;3.23;;;1.57;;
3967;SDS011;9221;42.646;23.380;2022-09-21T16:47:17;3.13;;;1.33;;
3967;SDS011;9221;42.646;23.380;2022-09-21T16:49:52;5.23;;;1.53;;
3967;SDS011;9221;42.646;23.380;2022-09-21T16:52:20;1.87;;;1.10;;
3967;SDS011;9221;42.646;23.380;2022-09-21T16:54:49;7.30;;;2.87;;
3967;SDS011;9221;42.646;23.380;2022-09-21T16:57:15;2.40;;;1.27;;
3967;SDS011;9221;42.646;23.380;2022-09-21T16:59:41;6.17;;;2.87;;
3967;SDS011;9221;42.646;23.380;2022-09-21T17:02:08;3.63;;;2.00;;
3967;SDS011;9221;42.646;23.380;2022-09-21T17:04:36;4.90;;;1.90;;
3967;SDS011;9221;42.646;23.380;2022-09-21T17:07:01;4.00;;;1.90;;
3967;SDS011;9221;42.646;23.380;2022-09-21T17:09:36;3.60;;;2.00;;
3967;SDS011;9221;42.646;23.380;2022-09-21T17:12:06;5.37;;;1.90;;
3967;SDS011;9221;42.646;23.380;2022-09-21T17:14:33;7.60;;;2.37;;
3967;SDS011;9221;42.646;23.380;2022-09-21T17:19:35;7.50;;;2.07;;
3967;SDS011;9221;42.646;23.380;2022-09-21T17:22:02;3.47;;;1.83;;
3967;SDS011;9221;42.646;23.380;2022-09-21T17:24:28;3.90;;;1.87;;
3967;SDS011;9221;42.646;23.380;2022-09-21T17:26:53;3.20;;;1.77;;
3967;SDS011;9221;42.646;23.380;2022-09-21T17:29:20;3.13;;;1.27;;
3967;SDS011;9221;42.646;23.380;2022-09-21T17:31:47;6.40;;;2.37;;
3967;SDS011;9221;42.646;23.380;2022-09-21T17:34:17;2.80;;;1.70;;
3967;SDS011;9221;42.646;23.380;2022-09-21T17:36:43;8.10;;;1.43;;
3967;SDS011;9221;42.646;23.380;2022-09-21T17:39:09;3.37;;;2.10;;
3967;SDS011;9221;42.646;23.380;2022-09-21T17:41:39;4.87;;;2.73;;
3967;SDS011;9221;42.646;23.380;2022-09-21T17:44:14;8.27;;;3.30;;
3967;SDS011;9221;42.646;23.380;2022-09-21T17:49:32;11.67;;;3.33;;
3967;SDS011;9221;42.646;23.380;2022-09-21T17:51:58;6.90;;;3.40;;
3967;SDS011;9221;42.646;23.380;2022-09-21T17:54:42;6.57;;;2.80;;
3967;SDS011;9221;42.646;23.380;2022-09-21T17:57:33;8.60;;;4.27;;
3967;SDS011;9221;42.646;23.380;2022-09-21T18:00:25;14.97;;;3.90;;
3967;SDS011;9221;42.646;23.380;2022-09-21T18:02:58;6.00;;;3.47;;
3967;SDS011;9221;42.646;23.380;2022-09-21T18:05:25;5.20;;;3.00;;
3967;SDS011;9221;42.646;23.380;2022-09-21T18:07:52;8.60;;;3.87;;
3967;SDS011;9221;42.646;23.380;2022-09-21T18:10:19;6.73;;;2.80;;
3967;SDS011;9221;42.646;23.380;2022-09-21T18:15:32;6.00;;;2.67;;
3967;SDS011;9221;42.646;23.380;2022-09-21T18:18:14;9.57;;;3.70;;
3967;SDS011;9221;42.646;23.380;2022-09-21T18:26:08;6.10;;;3.17;;
3967;SDS011;9221;42.646;23.380;2022-09-21T18:28:41;4.80;;;2.40;;
3967;SDS011;9221;42.646;23.380;2022-09-21T18:45:46;5.47;;;2.70;;
3967;SDS011;9221;42.646;23.380;2022-09-21T18:51:19;5.67;;;2.97;;
3967;SDS011;9221;42.646;23.380;2022-09-21T18:53:48;8.53;;;3.27;;
3967;SDS011;9221;42.646;23.380;2022-09-21T18:56:20;5.57;;;2.70;;
3967;SDS011;9221;42.646;23.380;2022-09-21T18:58:47;5.00;;;2.67;;
3967;SDS011;9221;42.646;23.380;2022-09-21T19:01:13;5.60;;;3.30;;
3967;SDS011;9221;42.646;23.380;2022-09-21T19:03:43;6.40;;;3.67;;
3967;SDS011;9221;42.646;23.380;2022-09-21T19:06:13;6.67;;;3.00;;
3967;SDS011;9221;42.646;23.380;2022-09-21T19:17:04;7.03;;;3.83;;
3967;SDS011;9221;42.646;23.380;2022-09-21T19:19:47;11.53;;;4.30;;
3967;SDS011;9221;42.646;23.380;2022-09-21T19:25:24;7.27;;;3.73;;
3967;SDS011;9221;42.646;23.380;2022-09-21T19:30:49;9.10;;;4.10;;
3967;SDS011;9221;42.646;23.380;2022-09-21T19:33:22;10.80;;;4.47;;
3967;SDS011;9221;42.646;23.380;2022-09-21T19:35:51;9.53;;;4.03;;
3967;SDS011;9221;42.646;23.380;2022-09-21T19:38:17;8.30;;;4.10;;
3967;SDS011;9221;42.646;23.380;2022-09-21T19:40:44;7.93;;;4.03;;
3967;SDS011;9221;42.646;23.380;2022-09-21T19:43:34;6.37;;;3.20;;
3967;SDS011;9221;42.646;23.380;2022-09-21T19:49:17;6.10;;;3.20;;
3967;SDS011;9221;42.646;23.380;2022-09-21T19:51:45;9.20;;;4.10;;
3967;SDS011;9221;42.646;23.380;2022-09-21T19:54:16;6.83;;;3.40;;
3967;SDS011;9221;42.646;23.380;2022-09-21T19:57:13;9.43;;;4.13;;
3967;SDS011;9221;42.646;23.380;2022-09-21T20:00:04;7.20;;;4.10;;